Time;durP1;ratioP1;P1;durP2;ratioP2;P2;SDS_P1;SDS_P2;PMS_P1;PMS_P2;Temp;Humidity;BMP_temperature;BMP_pressure;BME280_temperature;BME280_humidity;BME280_pressure;Samples;Min_cycle;Max_cycle;Signal;HPM_P1;HPM_P2
2023/11/28 00:43:23;;;;;;;18.47;11.93;;;;;2.70;99234.00;;;;6852552;23;20418;-90
2023/11/28 00:48:24;;;;;;;18.43;12.83;;;;;2.70;99235.00;;;;10142512;29;20236;-84
2023/11/28 01:30:19;;;;;;;14.50;11.07;;;;;2.90;99328.00;;;;8453504;23;20430;-85
2023/11/28 02:19:04;;;;;;;16.73;11.70;;;;;3.00;99422.00;;;;12137915;23;20218;31
2023/11/28 03:00:50;;;;;;;10.93;9.43;;;;;3.00;99508.00;;;;11722213;23;20685;31
2023/11/28 03:11:56;;;;;;;10.97;8.27;;;;;3.00;99511.00;;;;11286430;23;20301;-85
2023/11/28 03:16:57;;;;;;;10.20;8.50;;;;;2.90;99518.00;;;;10940261;23;20234;-85
2023/11/28 03:21:58;;;;;;;10.13;8.13;;;;;2.90;99526.00;;;;11139307;23;20303;-85
2023/11/28 03:27:01;;;;;;;10.97;9.50;;;;;2.90;99532.00;;;;11620633;23;20222;-86
2023/11/28 03:57:06;;;;;;;13.10;10.00;;;;;2.80;99575.00;;;;12324608;23;20214;31
2023/11/28 04:08:57;;;;;;;15.07;12.07;;;;;2.80;99619.00;;;;5914569;24;20479;-90
2023/11/28 04:39:22;;;;;;;14.20;11.00;;;;;2.70;99671.00;;;;12323332;23;21128;31
2023/11/28 04:45:33;;;;;;;11.83;9.77;;;;;2.70;99683.00;;;;3383619;23;20402;-89
2023/11/28 05:21:31;;;;;;;12.70;10.10;;;;;2.50;99763.00;;;;12320974;23;20286;31
2023/11/28 05:32:56;;;;;;;13.13;9.37;;;;;2.50;99763.00;;;;3692455;23;21026;-87
2023/11/28 07:11:04;;;;;;;10.63;8.37;;;;;2.00;99968.00;;;;3182494;23;20232;-83
2023/11/28 07:16:26;;;;;;;9.57;7.33;;;;;1.80;99983.00;;;;10669612;24;20491;-89
2023/11/28 07:21:29;;;;;;;9.50;6.70;;;;;1.70;100004.00;;;;10914080;23;20211;-77
2023/11/28 08:22:36;;;;;;;6.83;3.70;;;;;1.40;100128.00;;;;3306244;23;20384;-82
2023/11/28 08:33:47;;;;;;;4.90;3.70;;;;;1.60;100147.00;;;;2997010;24;20276;-83
2023/11/28 08:38:50;;;;;;;4.60;3.53;;;;;1.60;100158.00;;;;10114837;24;20247;-83
2023/11/28 08:43:51;;;;;;;5.27;4.17;;;;;1.70;100174.00;;;;10363901;24;20237;-83
2023/11/28 08:48:52;;;;;;;7.00;3.60;;;;;1.80;100172.00;;;;10133651;29;20275;-88
2023/11/28 08:53:55;;;;;;;5.67;4.20;;;;;1.80;100183.00;;;;10109384;29;20487;-83
2023/11/28 08:58:56;;;;;;;3.77;3.20;;;;;1.80;100193.00;;;;10102801;29;20235;-85
2023/11/28 09:04:00;;;;;;;4.33;3.40;;;;;1.70;100201.00;;;;10126750;29;20228;-83
2023/11/28 09:09:02;;;;;;;6.13;3.70;;;;;2.00;100205.00;;;;10122149;29;20235;-83
2023/11/28 09:14:03;;;;;;;5.07;3.57;;;;;2.10;100209.00;;;;10100640;29;20220;-84
2023/11/28 09:19:05;;;;;;;4.80;3.80;;;;;2.60;100204.00;;;;10101898;29;20251;-85
2023/11/28 09:24:08;;;;;;;4.53;3.67;;;;;2.80;100221.00;;;;10132255;28;20232;-88
2023/11/28 09:29:09;;;;;;;4.47;3.13;;;;;3.10;100236.00;;;;10124136;29;20234;-85
2023/11/28 09:34:10;;;;;;;8.23;3.87;;;;;3.40;100233.00;;;;10133874;28;20231;-88
2023/11/28 09:39:12;;;;;;;3.63;3.33;;;;;3.50;100234.00;;;;10125245;29;20230;-88
2023/11/28 09:44:15;;;;;;;4.20;3.43;;;;;3.60;100241.00;;;;10143551;28;20231;-84
2023/11/28 09:49:21;;;;;;;4.63;3.60;;;;;3.80;100255.00;;;;10111253;28;20235;-87
2023/11/28 09:54:24;;;;;;;4.50;3.43;;;;;4.10;100267.00;;;;10141300;28;20219;-90
2023/11/28 09:59:28;;;;;;;7.30;3.17;;;;;4.30;100259.00;;;;10120729;28;20398;-88
2023/11/28 10:04:29;;;;;;;7.70;3.60;;;;;4.50;100265.00;;;;10106621;29;20227;-88
2023/11/28 10:09:32;;;;;;;4.23;2.83;;;;;4.70;100278.00;;;;10126079;29;20230;-84
2023/11/28 10:14:33;;;;;;;4.17;3.03;;;;;4.70;100281.00;;;;10100974;29;20261;-88
2023/11/28 10:19:34;;;;;;;3.00;2.43;;;;;4.90;100279.00;;;;10146074;29;20231;-86
2023/11/28 10:24:35;;;;;;;2.83;2.40;;;;;5.00;100286.00;;;;10127686;28;20237;-85
2023/11/28 10:29:37;;;;;;;4.10;3.07;;;;;5.00;100275.00;;;;10080662;29;20314;-88
2023/11/28 10:34:39;;;;;;;2.93;2.63;;;;;5.00;100269.00;;;;10140564;28;20697;-88
2023/11/28 10:39:40;;;;;;;3.77;2.53;;;;;5.20;100266.00;;;;10102070;28;20237;-87
2023/11/28 10:44:41;;;;;;;5.03;2.80;;;;;5.40;100277.00;;;;10119649;29;20215;-87
2023/11/28 10:49:43;;;;;;;5.00;2.40;;;;;5.50;100281.00;;;;10136020;29;20955;-84
2023/11/28 10:54:53;;;;;;;3.40;2.40;;;;;5.30;100283.00;;;;10145335;29;20283;-86
2023/11/28 11:00:01;;;;;;;3.37;2.30;;;;;5.50;100280.00;;;;10121598;28;20493;-84
2023/11/28 11:05:06;;;;;;;2.73;2.47;;;;;5.50;100285.00;;;;10125374;29;20286;-86
2023/11/28 11:10:08;;;;;;;2.47;2.27;;;;;5.50;100277.00;;;;10133622;28;21005;-86
2023/11/28 11:15:14;;;;;;;3.00;2.53;;;;;5.70;100274.00;;;;10132765;29;20231;-88
2023/11/28 11:20:16;;;;;;;2.47;2.13;;;;;5.80;100277.00;;;;10108668;29;20585;-88
2023/11/28 11:25:51;;;;;;;2.40;2.07;;;;;5.80;100270.00;;;;10100131;29;20251;-87
2023/11/28 11:30:57;;;;;;;2.33;2.10;;;;;5.90;100261.00;;;;10145616;29;20311;-87
2023/11/28 11:36:15;;;;;;;3.00;2.70;;;;;6.00;100261.00;;;;10143286;29;20360;-84
2023/11/28 11:41:17;;;;;;;2.83;2.50;;;;;6.00;100268.00;;;;10163964;28;20226;-85
2023/11/28 11:46:18;;;;;;;6.13;2.77;;;;;6.00;100267.00;;;;10135568;28;20757;-88
2023/11/28 11:51:20;;;;;;;3.67;2.60;;;;;6.10;100277.00;;;;10114874;28;20237;-86
2023/11/28 11:56:23;;;;;;;3.53;2.60;;;;;6.20;100271.00;;;;10137031;29;20234;-88
2023/11/28 12:01:30;;;;;;;2.87;2.10;;;;;6.40;100276.00;;;;10147416;28;20271;-89
2023/11/28 12:06:31;;;;;;;2.23;1.93;;;;;6.40;100276.00;;;;10138570;28;20362;-84
2023/11/28 12:11:32;;;;;;;2.90;2.13;;;;;6.40;100274.00;;;;10140837;28;20231;-85
2023/11/28 12:16:44;;;;;;;2.47;2.27;;;;;6.30;100285.00;;;;10129099;29;20282;-87
2023/11/28 12:21:48;;;;;;;2.23;2.03;;;;;6.20;100284.00;;;;10146328;28;20263;-86
2023/11/28 12:26:49;;;;;;;2.63;2.20;;;;;6.20;100280.00;;;;10129823;29;20230;-88
2023/11/28 12:31:54;;;;;;;3.00;2.40;;;;;6.20;100280.00;;;;10145635;28;20242;-86
2023/11/28 12:36:56;;;;;;;4.60;2.20;;;;;6.30;100275.00;;;;10131770;28;20235;-88
2023/11/28 12:41:58;;;;;;;4.13;2.17;;;;;6.40;100279.00;;;;10157673;28;20227;-83
2023/11/28 12:46:59;;;;;;;2.73;2.43;;;;;6.20;100279.00;;;;10141035;28;20242;-86
2023/11/28 12:52:01;;;;;;;4.00;2.70;;;;;6.20;100271.00;;;;10116068;28;20239;-88
2023/11/28 12:57:02;;;;;;;4.20;2.33;;;;;6.20;100280.00;;;;10122451;29;20234;-86
2023/11/28 13:02:03;;;;;;;3.03;2.73;;;;;6.10;100280.00;;;;10121900;28;20700;-87
2023/11/28 13:07:05;;;;;;;3.23;2.40;;;;;6.00;100282.00;;;;10104742;28;20309;-86
2023/11/28 13:12:22;;;;;;;2.93;2.20;;;;;6.00;100287.00;;;;10109155;29;20246;-84
2023/11/28 13:17:24;;;;;;;3.63;2.50;;;;;5.80;100285.00;;;;10108009;28;20233;-85
2023/11/28 13:22:26;;;;;;;3.00;2.33;;;;;5.70;100288.00;;;;10113598;29;20579;-86
2023/11/28 13:27:28;;;;;;;3.60;2.30;;;;;5.60;100288.00;;;;10136208;28;20230;-89
2023/11/28 13:32:29;;;;;;;4.30;2.33;;;;;5.40;100291.00;;;;10114317;28;20231;-87
2023/11/28 13:37:30;;;;;;;3.30;2.30;;;;;5.20;100291.00;;;;10138176;28;20317;-88
2023/11/28 13:42:31;;;;;;;2.33;2.13;;;;;5.10;100288.00;;;;10132481;29;20242;-88
2023/11/28 13:47:33;;;;;;;6.00;2.40;;;;;5.00;100290.00;;;;10125471;29;20238;-87
2023/11/28 13:52:35;;;;;;;5.53;3.40;;;;;5.10;100287.00;;;;10136015;29;20235;-88
2023/11/28 13:57:36;;;;;;;2.87;2.20;;;;;4.80;100296.00;;;;10111575;29;20259;-86
2023/11/28 14:02:39;;;;;;;8.40;3.07;;;;;4.30;100291.00;;;;10110671;29;20644;-88
2023/11/28 14:07:46;;;;;;;3.67;3.00;;;;;4.00;100307.00;;;;10139708;28;20283;-87
2023/11/28 14:12:48;;;;;;;4.73;2.90;;;;;3.80;100303.00;;;;10133546;29;20227;-86
2023/11/28 14:17:51;;;;;;;4.03;3.17;;;;;3.70;100301.00;;;;10111634;28;20226;-87
2023/11/28 14:22:52;;;;;;;4.57;2.70;;;;;3.60;100304.00;;;;10113794;29;20250;-84
2023/11/28 14:27:53;;;;;;;5.57;3.13;;;;;3.40;100303.00;;;;10179651;28;20286;-85
2023/11/28 14:51:12;;;;;;;5.20;3.70;;;;;3.00;100325.00;;;;11695419;23;20231;-85
2023/11/28 15:27:19;;;;;;;7.00;4.60;;;;;1.90;100331.00;;;;11091976;23;20221;31
2023/11/28 15:32:20;;;;;;;6.33;4.00;;;;;1.70;100334.00;;;;10037381;29;20225;-84
2023/11/28 15:43:27;;;;;;;5.77;4.27;;;;;1.40;100339.00;;;;10287497;23;20249;-84
2023/11/28 15:54:42;;;;;;;6.00;4.07;;;;;1.20;100342.00;;;;12256612;23;20191;31
2023/11/28 16:18:12;;;;;;;6.47;3.57;;;;;0.60;100337.00;;;;11562677;23;20194;-77
2023/11/28 17:06:01;;;;;;;9.73;5.87;;;;;0.20;100326.00;;;;10546584;23;20548;-84
2023/11/28 17:11:02;;;;;;;8.33;4.50;;;;;0.20;100317.00;;;;10150228;29;20553;-84
2023/11/28 17:16:05;;;;;;;8.60;5.10;;;;;0.10;100323.00;;;;10142323;29;20277;-83
2023/11/28 17:21:06;;;;;;;6.87;4.93;;;;;0.10;100317.00;;;;10151678;29;20223;-85
2023/11/28 17:26:07;;;;;;;10.57;5.77;;;;;0.10;100316.00;;;;10121597;29;20527;-85
2023/11/28 17:31:09;;;;;;;11.67;6.50;;;;;0.10;100316.00;;;;10101352;29;20207;-87
2023/11/28 17:36:10;;;;;;;13.23;7.23;;;;;0.10;100331.00;;;;10497735;23;20210;-86
2023/11/28 17:41:18;;;;;;;11.00;7.00;;;;;0.10;100319.00;;;;11557532;23;20207;-86
2023/11/28 17:46:27;;;;;;;9.20;6.90;;;;;0.00;100321.00;;;;11857406;23;20208;31
2023/11/28 18:04:13;;;;;;;10.20;6.60;;;;;0.10;100332.00;;;;3094684;23;20234;-85
2023/11/28 18:09:15;;;;;;;12.23;6.97;;;;;0.10;100334.00;;;;10132414;29;20208;-87
2023/11/28 18:57:57;;;;;;;13.57;7.37;;;;;0.20;100288.00;;;;11071479;23;20229;-87
2023/11/28 19:09:08;;;;;;;14.30;9.60;;;;;0.30;100264.00;;;;8026281;23;21306;-89
2023/11/28 19:44:43;;;;;;;18.67;11.30;;;;;0.10;100268.00;;;;12194681;23;20221;31
2023/11/28 19:49:46;;;;;;;15.33;9.67;;;;;0.10;100264.00;;;;10873670;23;20271;-87
2023/11/28 19:54:47;;;;;;;14.53;9.13;;;;;0.20;100263.00;;;;10479233;24;20521;-90
2023/11/28 19:59:48;;;;;;;18.30;9.17;;;;;0.20;100248.00;;;;10379420;24;20295;-87
2023/11/28 20:05:33;;;;;;;13.57;8.17;;;;;0.30;100246.00;;;;3143011;23;20430;-88
2023/11/28 20:10:35;;;;;;;14.83;9.87;;;;;0.30;100240.00;;;;10129582;29;20222;-87
2023/11/28 20:15:36;;;;;;;13.23;8.77;;;;;0.30;100236.00;;;;10125576;29;20246;-88
2023/11/28 20:20:37;;;;;;;13.97;9.10;;;;;0.30;100233.00;;;;10146234;29;20227;-85
2023/11/28 20:25:38;;;;;;;15.00;8.97;;;;;0.30;100225.00;;;;10116791;29;20227;-88
2023/11/28 20:30:40;;;;;;;16.90;9.47;;;;;0.30;100222.00;;;;10095295;29;20250;-91
2023/11/28 20:35:41;;;;;;;16.30;9.43;;;;;0.30;100222.00;;;;10072477;29;20230;-90
2023/11/28 20:40:43;;;;;;;15.37;8.93;;;;;0.30;100222.00;;;;10105363;29;20243;-89
2023/11/28 20:45:45;;;;;;;21.27;10.07;;;;;0.20;100227.00;;;;10093634;29;20731;-87
2023/11/28 20:50:46;;;;;;;19.73;11.73;;;;;0.30;100230.00;;;;10107795;29;20232;-86
2023/11/28 20:55:48;;;;;;;18.00;10.77;;;;;0.40;100209.00;;;;10110737;29;20313;-88
2023/11/28 21:00:49;;;;;;;17.37;9.97;;;;;0.40;100203.00;;;;10119576;29;20231;-88
2023/11/28 21:05:50;;;;;;;15.37;9.17;;;;;0.50;100200.00;;;;10095842;29;20230;-89
2023/11/28 21:10:52;;;;;;;14.63;10.27;;;;;0.50;100199.00;;;;10095387;29;20578;-89
2023/11/28 21:15:53;;;;;;;16.87;10.23;;;;;0.50;100203.00;;;;10102072;29;20227;-87
2023/11/28 21:20:54;;;;;;;16.30;11.00;;;;;0.60;100183.00;;;;10098230;29;20243;-89
2023/11/28 21:25:55;;;;;;;20.30;10.73;;;;;0.50;100171.00;;;;10115901;29;20235;-88
2023/11/28 21:30:56;;;;;;;18.70;9.83;;;;;0.60;100177.00;;;;10111401;29;20595;-87
2023/11/28 21:35:58;;;;;;;15.17;9.57;;;;;0.70;100190.00;;;;10090483;29;20283;-88
2023/11/28 21:40:59;;;;;;;17.33;10.13;;;;;0.90;100176.00;;;;10084920;29;20243;-86
2023/11/28 21:46:03;;;;;;;17.93;10.67;;;;;1.10;100172.00;;;;10064422;29;20232;-88
2023/11/28 21:51:06;;;;;;;12.93;9.00;;;;;1.30;100156.00;;;;10088491;29;20231;-88
2023/11/28 21:56:07;;;;;;;19.43;9.33;;;;;1.40;100148.00;;;;10087662;29;20254;-88
2023/11/28 22:01:09;;;;;;;18.37;8.33;;;;;1.60;100152.00;;;;10092007;29;20622;-88
2023/11/28 22:06:11;;;;;;;14.07;9.23;;;;;1.70;100143.00;;;;10090327;29;20238;-89
2023/11/28 22:11:12;;;;;;;15.60;9.30;;;;;1.80;100136.00;;;;10091524;29;20853;-90
2023/11/28 22:16:13;;;;;;;14.20;9.13;;;;;1.80;100147.00;;;;10088454;29;20227;-87
2023/11/28 22:21:15;;;;;;;13.80;8.00;;;;;1.80;100132.00;;;;10069792;29;20259;-88
2023/11/28 22:26:16;;;;;;;15.23;8.07;;;;;1.90;100128.00;;;;10100488;29;20220;-89
2023/11/28 22:31:18;;;;;;;17.40;8.07;;;;;1.90;100126.00;;;;10082849;29;20239;-88
2023/11/28 22:36:22;;;;;;;13.67;8.47;;;;;1.90;100132.00;;;;10085133;29;20227;-87
2023/11/28 22:41:23;;;;;;;12.40;8.40;;;;;1.80;100122.00;;;;10080062;29;20274;-86
2023/11/28 22:46:28;;;;;;;13.67;8.17;;;;;1.70;100112.00;;;;10074973;29;20876;-90
2023/11/28 22:51:30;;;;;;;14.37;9.03;;;;;1.70;100116.00;;;;10097251;29;20242;-89
2023/11/28 22:56:31;;;;;;;17.70;9.33;;;;;1.60;100109.00;;;;10067803;29;20657;-90
2023/11/28 23:01:32;;;;;;;15.03;8.20;;;;;1.70;100112.00;;;;10070544;29;20240;-88
2023/11/28 23:06:33;;;;;;;15.13;8.67;;;;;1.70;100101.00;;;;10078138;29;20697;-88
2023/11/28 23:11:35;;;;;;;16.70;9.50;;;;;1.80;100103.00;;;;10077454;29;20251;-89
2023/11/28 23:16:37;;;;;;;13.50;8.57;;;;;1.80;100110.00;;;;10080747;29;20231;-87
2023/11/28 23:21:38;;;;;;;16.20;9.67;;;;;1.90;100104.00;;;;10099019;29;20228;-88
2023/11/28 23:26:43;;;;;;;11.63;7.80;;;;;2.00;100098.00;;;;10063919;29;20262;-86
2023/11/28 23:31:44;;;;;;;14.90;8.43;;;;;2.00;100088.00;;;;10076968;29;20234;-88
2023/11/28 23:36:45;;;;;;;15.13;8.37;;;;;2.10;100091.00;;;;10088645;29;20239;-84
2023/11/28 23:41:47;;;;;;;13.77;8.10;;;;;2.10;100074.00;;;;10078460;29;20310;-88
2023/11/28 23:46:48;;;;;;;13.83;7.90;;;;;2.20;100077.00;;;;10077932;29;20257;-87
2023/11/28 23:51:49;;;;;;;11.17;7.40;;;;;2.30;100061.00;;;;10101022;29;20876;-86
2023/11/28 23:56:51;;;;;;;12.87;7.57;;;;;2.30;100056.00;;;;10070121;29;20263;-89
